Time;durP1;ratioP1;P1;durP2;ratioP2;P2;SDS_P1;SDS_P2;PMS_P1;PMS_P2;Temp;Humidity;BMP_temperature;BMP_pressure;BME280_temperature;BME280_humidity;BME280_pressure;Samples;Min_cycle;Max_cycle;Signal;HPM_P1;HPM_P2
2022/12/11 00:01:45;;;;;;;9.48;8.02;;;;;;;;;;5094624;28;20016;-63
2022/12/11 00:04:10;;;;;;;8.20;7.20;;;;;;;;;;5094767;28;20527;-61
2022/12/11 00:06:36;;;;;;;9.80;8.35;;;;;;;;;;5095984;28;20031;-62
2022/12/11 00:09:01;;;;;;;9.35;7.63;;;;;;;;;;5096340;28;20024;-62
2022/12/11 00:11:26;;;;;;;7.32;6.28;;;;;;;;;;5096202;28;20493;-68
2022/12/11 00:13:52;;;;;;;7.68;6.90;;;;;;;;;;5076964;28;20040;-68
2022/12/11 00:16:17;;;;;;;8.98;7.35;;;;;;;;;;5094733;28;20020;-68
2022/12/11 00:18:43;;;;;;;6.90;6.00;;;;;;;;;;5094507;28;20036;-68
2022/12/11 00:21:10;;;;;;;6.13;5.20;;;;;;;;;;5094404;28;20063;-63
2022/12/11 00:23:36;;;;;;;13.13;10.27;;;;;;;;;;5096108;28;20502;-66
2022/12/11 00:26:05;;;;;;;6.57;5.90;;;;;;;;;;5096069;28;20089;-67
2022/12/11 00:28:31;;;;;;;6.28;5.68;;;;;;;;;;5096392;28;20373;-66
2022/12/11 00:30:57;;;;;;;20.88;15.80;;;;;;;;;;5095799;28;20023;-67
2022/12/11 00:33:22;;;;;;;7.72;6.57;;;;;;;;;;5096152;28;20116;-62
2022/12/11 00:35:47;;;;;;;7.82;7.00;;;;;;;;;;5096089;28;20117;-61
2022/12/11 00:38:14;;;;;;;7.57;6.30;;;;;;;;;;5078170;28;20446;-62
2022/12/11 00:40:39;;;;;;;7.93;7.00;;;;;;;;;;5095531;28;20024;-63
2022/12/11 00:43:05;;;;;;;7.93;6.13;;;;;;;;;;5094372;28;20347;-63
2022/12/11 00:45:30;;;;;;;9.07;8.15;;;;;;;;;;5094016;28;20038;-68
2022/12/11 00:47:56;;;;;;;7.75;6.95;;;;;;;;;;5094140;28;20035;-68
2022/12/11 00:50:22;;;;;;;6.82;6.13;;;;;;;;;;5094030;28;20047;-68
2022/12/11 00:52:47;;;;;;;7.63;6.82;;;;;;;;;;5093736;28;20040;-68
2022/12/11 00:55:12;;;;;;;7.97;7.15;;;;;;;;;;5093826;28;20031;-67
2022/12/11 00:57:38;;;;;;;8.77;7.88;;;;;;;;;;5093784;28;20102;-63
2022/12/11 01:00:05;;;;;;;9.93;8.85;;;;;;;;;;5076066;28;20031;-62
2022/12/11 01:02:32;;;;;;;8.80;7.63;;;;;;;;;;5095160;28;20111;-62
2022/12/11 01:04:58;;;;;;;6.93;6.03;;;;;;;;;;5095186;28;20051;-62
2022/12/11 01:07:23;;;;;;;10.68;7.78;;;;;;;;;;5095348;28;20028;-62
2022/12/11 01:12:33;;;;;;;7.20;6.13;;;;;;;;;;5077226;28;20449;-63
2022/12/11 01:14:58;;;;;;;9.38;8.40;;;;;;;;;;5094694;28;20024;-63
2022/12/11 01:17:23;;;;;;;8.50;7.65;;;;;;;;;;5095185;28;20028;-64
2022/12/11 01:19:49;;;;;;;7.40;6.65;;;;;;;;;;5094485;28;20020;-63
2022/12/11 01:22:14;;;;;;;16.92;11.00;;;;;;;;;;5093448;28;20035;-63
2022/12/11 01:24:40;;;;;;;7.78;6.97;;;;;;;;;;5093777;28;20444;-68
2022/12/11 01:27:05;;;;;;;7.85;7.10;;;;;;;;;;5094869;28;20031;-69
2022/12/11 01:29:31;;;;;;;8.00;7.20;;;;;;;;;;5095173;28;20020;-68
2022/12/11 01:31:56;;;;;;;8.13;7.32;;;;;;;;;;5094061;28;20368;-69
2022/12/11 01:34:21;;;;;;;17.52;13.73;;;;;;;;;;5094801;28;20495;-68
2022/12/11 01:36:47;;;;;;;10.43;9.43;;;;;;;;;;5095020;28;20032;-68
2022/12/11 01:39:12;;;;;;;9.88;7.63;;;;;;;;;;5094937;28;20056;-68
2022/12/11 01:41:37;;;;;;;8.73;7.68;;;;;;;;;;5094499;28;20096;-67
2022/12/11 01:44:05;;;;;;;8.80;7.47;;;;;;;;;;5094677;28;20036;-68
2022/12/11 01:46:32;;;;;;;8.52;7.70;;;;;;;;;;5093529;28;20059;-68
2022/12/11 01:48:58;;;;;;;7.35;6.68;;;;;;;;;;5074921;28;20028;-68
2022/12/11 01:51:24;;;;;;;7.60;6.35;;;;;;;;;;5093540;28;20420;-68
2022/12/11 01:53:52;;;;;;;7.10;6.40;;;;;;;;;;5094801;28;20020;-69
2022/12/11 01:56:18;;;;;;;6.70;6.10;;;;;;;;;;5094626;28;20131;-68
2022/12/11 01:58:46;;;;;;;6.50;5.90;;;;;;;;;;5094910;28;20107;-68
2022/12/11 02:01:17;;;;;;;7.00;6.00;;;;;;;;;;5093546;28;20036;-68
2022/12/11 02:03:42;;;;;;;6.15;5.55;;;;;;;;;;5091690;28;20023;-63
2022/12/11 02:06:27;;;;;;;6.32;5.82;;;;;;;;;;5076461;28;20016;-63
2022/12/11 02:08:53;;;;;;;6.53;5.90;;;;;;;;;;5094367;28;20035;-63
2022/12/11 02:11:19;;;;;;;6.00;5.28;;;;;;;;;;5094527;28;20016;-62
2022/12/11 02:13:51;;;;;;;5.60;5.05;;;;;;;;;;5094309;28;20107;-63
2022/12/11 02:16:19;;;;;;;5.55;5.05;;;;;;;;;;5094414;28;20032;-63
2022/12/11 02:18:49;;;;;;;5.30;4.78;;;;;;;;;;5093976;28;20016;-63
2022/12/11 02:21:30;;;;;;;5.40;4.63;;;;;;;;;;5094223;28;20032;-64
2022/12/11 02:24:03;;;;;;;6.20;5.57;;;;;;;;;;5075863;28;20040;-63
2022/12/11 02:26:31;;;;;;;5.43;4.97;;;;;;;;;;5093844;28;20016;-63
2022/12/11 02:28:57;;;;;;;5.53;5.03;;;;;;;;;;5094374;28;20012;-63
2022/12/11 02:31:26;;;;;;;7.68;5.38;;;;;;;;;;5093078;28;20035;-68
2022/12/11 02:33:58;;;;;;;6.13;5.50;;;;;;;;;;5094274;28;20055;-69
2022/12/11 02:36:26;;;;;;;5.65;4.63;;;;;;;;;;5091080;28;20052;-68
2022/12/11 02:38:52;;;;;;;6.05;5.55;;;;;;;;;;5093840;28;20111;-69
2022/12/11 02:41:19;;;;;;;5.85;5.35;;;;;;;;;;5093816;28;20036;-69
2022/12/11 02:43:45;;;;;;;6.72;5.78;;;;;;;;;;5093646;28;20104;-69
2022/12/11 02:46:11;;;;;;;5.70;5.22;;;;;;;;;;5094044;28;20036;-69
2022/12/11 02:48:37;;;;;;;7.20;6.05;;;;;;;;;;5076102;28;20023;-69
2022/12/11 02:51:04;;;;;;;6.20;5.63;;;;;;;;;;5094063;28;20020;-69
2022/12/11 02:53:31;;;;;;;7.28;6.57;;;;;;;;;;5094006;28;20429;-69
2022/12/11 02:56:19;;;;;;;7.85;6.13;;;;;;;;;;5094364;28;20401;-69
2022/12/11 02:58:46;;;;;;;5.90;5.30;;;;;;;;;;5093823;28;20051;-70
2022/12/11 03:01:12;;;;;;;6.88;6.22;;;;;;;;;;5093707;28;20395;-69
2022/12/11 03:03:37;;;;;;;6.40;5.78;;;;;;;;;;5093626;28;20028;-68
2022/12/11 03:06:03;;;;;;;7.63;6.45;;;;;;;;;;5093740;28;20455;-68
2022/12/11 03:08:28;;;;;;;8.00;7.10;;;;;;;;;;5093850;28;20073;-68
2022/12/11 03:10:53;;;;;;;8.63;7.35;;;;;;;;;;5093333;28;20482;-68
2022/12/11 03:13:21;;;;;;;6.32;5.80;;;;;;;;;;5093609;28;20039;-68
2022/12/11 03:15:55;;;;;;;8.65;7.72;;;;;;;;;;5093599;28;20016;-68
2022/12/11 03:18:21;;;;;;;7.32;5.95;;;;;;;;;;5075994;28;20036;-69
2022/12/11 03:20:53;;;;;;;5.03;4.53;;;;;;;;;;5076169;28;20016;-69
2022/12/11 03:23:27;;;;;;;7.95;7.15;;;;;;;;;;5093393;28;20047;-70
2022/12/11 03:25:54;;;;;;;8.20;6.65;;;;;;;;;;5093354;28;20036;-70
2022/12/11 03:28:26;;;;;;;8.43;7.53;;;;;;;;;;5093510;28;20043;-70
2022/12/11 03:30:52;;;;;;;7.43;6.70;;;;;;;;;;5093017;28;20046;-68
2022/12/11 03:33:30;;;;;;;8.63;7.53;;;;;;;;;;5093505;28;20016;-69
2022/12/11 03:35:57;;;;;;;8.65;7.60;;;;;;;;;;5093552;28;20026;-68
2022/12/11 03:38:24;;;;;;;7.95;7.05;;;;;;;;;;5095342;28;20051;-67
2022/12/11 03:40:52;;;;;;;8.55;7.65;;;;;;;;;;5096749;28;20035;-68
2022/12/11 03:43:18;;;;;;;10.07;7.60;;;;;;;;;;5096972;28;20020;-67
2022/12/11 03:45:46;;;;;;;8.18;6.78;;;;;;;;;;5096698;28;20489;-67
2022/12/11 03:48:13;;;;;;;8.02;6.70;;;;;;;;;;5097233;28;20408;-68
2022/12/11 03:50:39;;;;;;;8.60;7.25;;;;;;;;;;5097073;28;20366;-68
2022/12/11 03:53:05;;;;;;;7.78;6.88;;;;;;;;;;5097162;28;20454;-68
2022/12/11 03:55:32;;;;;;;7.35;6.32;;;;;;;;;;5096685;28;20036;-67
2022/12/11 03:57:57;;;;;;;8.52;7.30;;;;;;;;;;5096721;28;20024;-67
2022/12/11 04:00:23;;;;;;;8.10;7.15;;;;;;;;;;5096737;28;20541;-67
2022/12/11 04:03:11;;;;;;;7.32;6.63;;;;;;;;;;5096848;28;20463;-68
2022/12/11 04:05:34;;;;;;;8.95;6.63;;;;;;;;;;5094987;28;20082;-63
2022/12/11 04:07:59;;;;;;;9.23;7.68;;;;;;;;;;5096327;28;20016;-63
2022/12/11 04:10:25;;;;;;;7.13;6.30;;;;;;;;;;5096849;28;20063;-63
2022/12/11 04:12:50;;;;;;;5.75;5.15;;;;;;;;;;5096432;28;20028;-63
2022/12/11 04:15:15;;;;;;;6.95;5.82;;;;;;;;;;5096712;28;20032;-63
2022/12/11 04:26:02;;;;;;;6.80;6.15;;;;;;;;;;5096048;28;20081;-63
2022/12/11 04:28:28;;;;;;;7.88;6.55;;;;;;;;;;5096433;28;20020;-63
2022/12/11 04:30:53;;;;;;;6.78;5.80;;;;;;;;;;5095884;28;20012;-63
2022/12/11 04:33:18;;;;;;;7.28;6.40;;;;;;;;;;5095580;28;20158;-62
2022/12/11 04:35:44;;;;;;;8.10;6.45;;;;;;;;;;5096360;28;20439;-63
2022/12/11 04:38:09;;;;;;;7.15;6.43;;;;;;;;;;5095803;28;20044;-62
2022/12/11 04:40:34;;;;;;;5.50;4.75;;;;;;;;;;5096125;28;20028;-62
2022/12/11 04:43:00;;;;;;;7.00;6.10;;;;;;;;;;5095656;28;20110;-62
2022/12/11 04:45:25;;;;;;;7.80;7.00;;;;;;;;;;5077936;28;20089;-63
2022/12/11 04:47:51;;;;;;;7.68;6.65;;;;;;;;;;5095676;28;20020;-62
2022/12/11 04:50:16;;;;;;;7.40;6.22;;;;;;;;;;5094794;28;20455;-62
2022/12/11 04:52:42;;;;;;;8.00;7.25;;;;;;;;;;5095013;28;20052;-67
2022/12/11 04:55:08;;;;;;;7.43;6.57;;;;;;;;;;5095150;28;20477;-67
2022/12/11 04:57:33;;;;;;;7.03;6.30;;;;;;;;;;5095579;28;20028;-67
2022/12/11 04:59:58;;;;;;;8.90;7.07;;;;;;;;;;5095386;28;20074;-62
2022/12/11 05:02:25;;;;;;;7.60;6.50;;;;;;;;;;5078159;28;20393;-63
2022/12/11 05:04:50;;;;;;;8.65;7.10;;;;;;;;;;5074819;28;20612;-62
2022/12/11 05:07:16;;;;;;;7.97;6.57;;;;;;;;;;5075124;28;20082;-62
2022/12/11 05:09:41;;;;;;;7.18;6.47;;;;;;;;;;5075060;28;20418;-62
2022/12/11 05:12:06;;;;;;;6.72;5.80;;;;;;;;;;5083411;28;20035;-62
2022/12/11 05:14:32;;;;;;;6.70;6.00;;;;;;;;;;5095171;28;20073;-68
2022/12/11 05:16:58;;;;;;;6.43;5.80;;;;;;;;;;5077356;28;20035;-68
2022/12/11 05:19:23;;;;;;;7.07;6.38;;;;;;;;;;5094786;28;20016;-69
2022/12/11 05:21:48;;;;;;;7.15;6.28;;;;;;;;;;5091219;28;20028;-67
2022/12/11 05:24:14;;;;;;;6.40;5.78;;;;;;;;;;5095214;28;20019;-67
2022/12/11 05:26:39;;;;;;;5.18;4.65;;;;;;;;;;5076966;28;20032;-67
2022/12/11 05:29:07;;;;;;;6.97;6.28;;;;;;;;;;5094937;28;20012;-67
2022/12/11 05:31:32;;;;;;;6.70;6.10;;;;;;;;;;5090105;28;20046;-62
2022/12/11 05:33:57;;;;;;;6.85;5.80;;;;;;;;;;5094369;28;20024;-62
2022/12/11 05:36:27;;;;;;;7.32;6.22;;;;;;;;;;5094664;28;20415;-62
2022/12/11 05:38:53;;;;;;;6.85;5.68;;;;;;;;;;5094793;28;20063;-62
2022/12/11 05:41:20;;;;;;;7.50;6.22;;;;;;;;;;5085539;28;20081;-67
2022/12/11 05:43:45;;;;;;;6.15;5.53;;;;;;;;;;5094891;28;20027;-67
2022/12/11 05:46:12;;;;;;;8.15;6.45;;;;;;;;;;5076552;28;20386;-66
2022/12/11 05:48:37;;;;;;;6.15;5.55;;;;;;;;;;5093804;28;20020;-66
2022/12/11 05:51:05;;;;;;;7.70;6.35;;;;;;;;;;5093792;28;20035;-66
2022/12/11 05:53:30;;;;;;;7.15;6.03;;;;;;;;;;5088453;28;20020;-62
2022/12/11 05:56:03;;;;;;;7.90;7.10;;;;;;;;;;5093916;28;20944;-61
2022/12/11 05:58:28;;;;;;;8.82;7.68;;;;;;;;;;5093487;28;20458;-63
2022/12/11 06:00:53;;;;;;;7.78;6.90;;;;;;;;;;5094063;28;20027;-63
2022/12/11 06:03:19;;;;;;;9.30;7.85;;;;;;;;;;5094402;28;20036;-62
2022/12/11 06:05:44;;;;;;;9.23;7.63;;;;;;;;;;5094055;28;20016;-62
2022/12/11 06:08:09;;;;;;;35.28;20.80;;;;;;;;;;5094555;28;20547;-63
2022/12/11 06:10:35;;;;;;;14.30;10.38;;;;;;;;;;5091347;28;20023;-62
2022/12/11 06:13:00;;;;;;;15.13;10.35;;;;;;;;;;5091274;28;20090;-62
2022/12/11 06:15:26;;;;;;;14.88;10.05;;;;;;;;;;5071863;28;20025;-62
2022/12/11 06:17:51;;;;;;;11.63;9.45;;;;;;;;;;5090467;28;20036;-64
2022/12/11 06:20:16;;;;;;;12.93;8.93;;;;;;;;;;5090469;28;20024;-64
2022/12/11 06:22:42;;;;;;;20.73;14.07;;;;;;;;;;5090604;28;20047;-63
2022/12/11 06:25:08;;;;;;;12.13;8.93;;;;;;;;;;5090398;28;20020;-64
2022/12/11 06:27:33;;;;;;;11.70;9.95;;;;;;;;;;5089768;28;20055;-64
2022/12/11 06:29:59;;;;;;;10.48;9.27;;;;;;;;;;5089869;28;20489;-63
2022/12/11 06:32:24;;;;;;;25.33;17.60;;;;;;;;;;5090420;28;20035;-63
2022/12/11 06:34:50;;;;;;;13.98;11.15;;;;;;;;;;5090479;28;20031;-64
2022/12/11 06:37:15;;;;;;;19.30;14.27;;;;;;;;;;5091292;28;20131;-64
2022/12/11 06:39:40;;;;;;;10.52;7.93;;;;;;;;;;5093041;28;20382;-64
2022/12/11 06:42:06;;;;;;;19.42;13.45;;;;;;;;;;5092880;28;20119;-64
2022/12/11 06:44:31;;;;;;;9.60;8.60;;;;;;;;;;5093188;28;20020;-64
2022/12/11 06:46:57;;;;;;;7.47;6.78;;;;;;;;;;5091660;28;20541;-63
2022/12/11 06:49:22;;;;;;;9.23;8.05;;;;;;;;;;5088864;28;20027;-63
2022/12/11 06:51:48;;;;;;;7.03;5.85;;;;;;;;;;5088676;28;20063;-63
2022/12/11 06:54:13;;;;;;;8.60;7.50;;;;;;;;;;5089106;28;20134;-64
2022/12/11 06:56:39;;;;;;;8.35;7.10;;;;;;;;;;5091923;28;20035;-64
2022/12/11 06:59:04;;;;;;;12.10;9.75;;;;;;;;;;5092143;28;20535;-63
2022/12/11 07:01:29;;;;;;;7.82;6.88;;;;;;;;;;5092159;28;20077;-64
2022/12/11 07:03:56;;;;;;;8.38;7.03;;;;;;;;;;5091905;28;20149;-63
2022/12/11 07:06:22;;;;;;;8.05;7.20;;;;;;;;;;5092179;28;20031;-64
2022/12/11 07:08:47;;;;;;;8.77;7.00;;;;;;;;;;5091528;28;20462;-64
2022/12/11 07:11:13;;;;;;;7.78;6.95;;;;;;;;;;5092566;28;20028;-64
2022/12/11 07:13:40;;;;;;;10.63;8.68;;;;;;;;;;5094613;28;20454;-63
2022/12/11 07:16:09;;;;;;;11.43;7.93;;;;;;;;;;5097099;28;20366;-64
2022/12/11 07:18:35;;;;;;;14.23;9.95;;;;;;;;;;5096745;28;20008;-64
2022/12/11 07:21:01;;;;;;;15.27;9.32;;;;;;;;;;5095545;28;20031;-64
2022/12/11 07:23:27;;;;;;;17.75;9.73;;;;;;;;;;5096659;28;20020;-64
2022/12/11 07:25:53;;;;;;;10.30;7.43;;;;;;;;;;5096405;28;20020;-65
2022/12/11 07:28:18;;;;;;;13.82;7.90;;;;;;;;;;5096097;28;20012;-65
2022/12/11 07:30:43;;;;;;;17.13;8.02;;;;;;;;;;5094976;28;20373;-64
2022/12/11 07:33:09;;;;;;;12.98;8.48;;;;;;;;;;5096908;28;20028;-64
2022/12/11 07:35:34;;;;;;;10.60;7.50;;;;;;;;;;5096612;28;20028;-63
2022/12/11 07:38:00;;;;;;;37.45;14.82;;;;;;;;;;5096420;28;20047;-64
2022/12/11 07:40:26;;;;;;;10.25;7.85;;;;;;;;;;5096694;28;20028;-64
2022/12/11 07:42:52;;;;;;;6.97;6.30;;;;;;;;;;5096242;28;20031;-64
2022/12/11 07:45:18;;;;;;;8.02;7.00;;;;;;;;;;5095770;28;20039;-63
2022/12/11 07:47:43;;;;;;;16.60;8.52;;;;;;;;;;5094936;28;20355;-64
2022/12/11 07:50:09;;;;;;;14.57;7.45;;;;;;;;;;5095186;28;20386;-64
2022/12/11 07:52:34;;;;;;;13.60;8.68;;;;;;;;;;5094784;28;20385;-64
2022/12/11 07:55:00;;;;;;;30.60;14.60;;;;;;;;;;5094385;28;20028;-65
2022/12/11 07:57:26;;;;;;;21.83;10.57;;;;;;;;;;5094334;28;20024;-64
2022/12/11 07:59:51;;;;;;;15.15;9.45;;;;;;;;;;5094009;28;20132;-64
2022/12/11 08:02:16;;;;;;;19.00;11.75;;;;;;;;;;5094175;28;20108;-64
2022/12/11 08:04:42;;;;;;;9.80;8.73;;;;;;;;;;5094845;28;20077;-64
2022/12/11 08:07:07;;;;;;;8.05;7.05;;;;;;;;;;5077172;28;20508;-64
2022/12/11 08:09:33;;;;;;;11.98;8.55;;;;;;;;;;5096299;28;20381;-65
2022/12/11 08:11:59;;;;;;;10.25;7.85;;;;;;;;;;5096244;28;20016;-64
2022/12/11 08:14:24;;;;;;;17.77;11.00;;;;;;;;;;5095928;28;20033;-63
2022/12/11 08:16:49;;;;;;;8.40;6.32;;;;;;;;;;5077961;28;20024;-65
2022/12/11 08:19:15;;;;;;;8.48;7.45;;;;;;;;;;5096189;28;20036;-67
2022/12/11 08:21:40;;;;;;;11.95;8.23;;;;;;;;;;5095708;28;20081;-63
2022/12/11 08:24:06;;;;;;;10.25;7.95;;;;;;;;;;5095717;28;20505;-64
2022/12/11 08:26:32;;;;;;;9.40;8.15;;;;;;;;;;5095989;28;20020;-63
2022/12/11 08:28:57;;;;;;;8.93;8.02;;;;;;;;;;5096063;28;20027;-64
2022/12/11 08:31:23;;;;;;;10.75;8.60;;;;;;;;;;5095992;28;20012;-63
2022/12/11 08:33:49;;;;;;;7.80;7.05;;;;;;;;;;5094895;28;20593;-63
2022/12/11 08:36:15;;;;;;;9.10;7.97;;;;;;;;;;5094573;28;20024;-64
2022/12/11 08:38:41;;;;;;;8.48;7.68;;;;;;;;;;5094266;28;20044;-64
2022/12/11 08:41:08;;;;;;;8.55;7.65;;;;;;;;;;5093434;28;20035;-63
2022/12/11 08:43:33;;;;;;;10.85;9.05;;;;;;;;;;5093794;28;20089;-64
2022/12/11 08:45:59;;;;;;;8.38;7.50;;;;;;;;;;5075897;28;20024;-63
2022/12/11 08:48:24;;;;;;;9.18;7.90;;;;;;;;;;5095368;28;20020;-64
2022/12/11 08:50:50;;;;;;;9.73;7.72;;;;;;;;;;5095568;28;20016;-64
2022/12/11 08:53:15;;;;;;;10.60;8.13;;;;;;;;;;5095516;28;20497;-64
2022/12/11 08:55:41;;;;;;;10.25;8.32;;;;;;;;;;5095407;28;20059;-64
2022/12/11 08:58:06;;;;;;;10.13;7.47;;;;;;;;;;5095532;28;20024;-63
2022/12/11 09:00:32;;;;;;;9.57;7.70;;;;;;;;;;5095302;28;20024;-64
2022/12/11 09:02:57;;;;;;;11.20;8.23;;;;;;;;;;5095269;28;20077;-64
2022/12/11 09:05:22;;;;;;;8.57;7.68;;;;;;;;;;5095424;28;20347;-63
2022/12/11 09:07:48;;;;;;;8.85;7.45;;;;;;;;;;5095219;28;20036;-63
2022/12/11 09:10:13;;;;;;;7.40;6.45;;;;;;;;;;5095067;28;20013;-63
2022/12/11 09:12:39;;;;;;;10.50;9.05;;;;;;;;;;5095062;28;20111;-63
2022/12/11 09:15:04;;;;;;;9.27;7.93;;;;;;;;;;5095027;28;20024;-63
2022/12/11 09:17:30;;;;;;;9.55;7.72;;;;;;;;;;5095159;28;20031;-63
2022/12/11 09:19:55;;;;;;;9.50;7.47;;;;;;;;;;5095293;28;20016;-64
2022/12/11 09:22:21;;;;;;;11.20;8.27;;;;;;;;;;5094828;28;20386;-63
2022/12/11 09:24:46;;;;;;;10.73;9.15;;;;;;;;;;5076661;28;20374;-63
2022/12/11 09:27:12;;;;;;;9.13;7.72;;;;;;;;;;5076638;28;20028;-63
2022/12/11 09:29:38;;;;;;;10.95;8.75;;;;;;;;;;5094940;28;20016;-64
2022/12/11 09:32:03;;;;;;;11.43;8.48;;;;;;;;;;5094586;28;20032;-63
2022/12/11 09:34:28;;;;;;;12.57;9.57;;;;;;;;;;5094582;28;20024;-63
2022/12/11 09:36:54;;;;;;;9.63;8.20;;;;;;;;;;5094053;28;20146;-63
2022/12/11 09:39:20;;;;;;;9.98;8.40;;;;;;;;;;5094641;28;20031;-64
2022/12/11 09:41:57;;;;;;;9.30;7.38;;;;;;;;;;5094551;28;20033;-63
2022/12/11 09:44:26;;;;;;;9.57;8.30;;;;;;;;;;5094619;28;20035;-63
2022/12/11 09:46:51;;;;;;;11.60;9.50;;;;;;;;;;5094504;28;20458;-63
2022/12/11 09:49:36;;;;;;;43.92;34.30;;;;;;;;;;5094504;28;20023;-63
2022/12/11 09:52:07;;;;;;;286.88;194.68;;;;;;;;;;5094253;28;20035;-63
2022/12/11 09:54:33;;;;;;;60.53;39.20;;;;;;;;;;5076275;28;20031;-63
2022/12/11 09:57:12;;;;;;;216.60;103.50;;;;;;;;;;5094274;28;20374;-63
2022/12/11 09:59:56;;;;;;;74.97;37.83;;;;;;;;;;5094296;28;20039;-64
2022/12/11 10:02:34;;;;;;;1055.53;539.47;;;;;;;;;;5076129;28;20035;-64
2022/12/11 10:05:00;;;;;;;109.72;59.58;;;;;;;;;;5076101;28;20024;-63
2022/12/11 10:07:33;;;;;;;798.17;463.85;;;;;;;;;;5094050;28;20055;-63
2022/12/11 10:10:05;;;;;;;44.58;28.88;;;;;;;;;;5094019;28;20024;-64
2022/12/11 10:12:30;;;;;;;14.25;10.90;;;;;;;;;;5094002;28;20038;-63
2022/12/11 10:14:56;;;;;;;11.05;9.18;;;;;;;;;;5093998;28;20024;-63
2022/12/11 10:17:26;;;;;;;25.40;18.95;;;;;;;;;;5093985;28;20031;-63
2022/12/11 10:19:52;;;;;;;11.38;8.88;;;;;;;;;;5093915;28;20071;-64
2022/12/11 10:22:28;;;;;;;19.35;14.50;;;;;;;;;;5093796;28;20059;-64
2022/12/11 10:24:58;;;;;;;9.18;8.25;;;;;;;;;;5093839;28;20114;-64
2022/12/11 10:27:30;;;;;;;9.48;8.15;;;;;;;;;;5093776;28;20024;-64
2022/12/11 10:30:07;;;;;;;17.75;15.43;;;;;;;;;;5093799;28;20103;-64
2022/12/11 10:32:38;;;;;;;11.15;9.02;;;;;;;;;;5093760;28;20067;-63
2022/12/11 10:35:04;;;;;;;13.38;11.10;;;;;;;;;;5093709;28;20035;-64
2022/12/11 10:37:30;;;;;;;13.77;11.05;;;;;;;;;;5093528;28;20119;-63
2022/12/11 10:39:55;;;;;;;9.48;8.23;;;;;;;;;;5093728;28;20115;-63
2022/12/11 10:42:21;;;;;;;18.42;15.90;;;;;;;;;;5093595;28;20060;-63
2022/12/11 10:45:00;;;;;;;13.57;9.73;;;;;;;;;;5093694;28;20024;-63
2022/12/11 10:47:25;;;;;;;8.77;7.60;;;;;;;;;;5096065;28;20028;-64
2022/12/11 10:49:57;;;;;;;12.25;10.23;;;;;;;;;;5097887;28;20104;-63
2022/12/11 10:52:28;;;;;;;10.90;9.10;;;;;;;;;;5097822;28;20032;-63
2022/12/11 10:55:05;;;;;;;11.80;9.40;;;;;;;;;;5079518;28;20042;-63
2022/12/11 10:57:32;;;;;;;15.15;11.63;;;;;;;;;;5097706;28;20093;-64
2022/12/11 10:59:58;;;;;;;11.73;8.73;;;;;;;;;;5097686;28;20024;-64
2022/12/11 11:02:25;;;;;;;19.65;12.65;;;;;;;;;;5097587;28;20043;-63
2022/12/11 11:04:51;;;;;;;280.88;122.40;;;;;;;;;;5097573;28;20089;-63
2022/12/11 11:07:23;;;;;;;33.85;20.65;;;;;;;;;;5079573;28;20024;-64
2022/12/11 11:09:50;;;;;;;11.90;9.38;;;;;;;;;;5079949;28;20031;-63
2022/12/11 11:12:20;;;;;;;10.38;8.25;;;;;;;;;;5097482;28;20020;-63
2022/12/11 11:14:45;;;;;;;10.88;8.85;;;;;;;;;;5097352;28;20034;-63
2022/12/11 11:17:15;;;;;;;314.77;117.88;;;;;;;;;;5097296;28;20024;-64
2022/12/11 11:19:44;;;;;;;520.55;207.15;;;;;;;;;;5097435;28;20042;-64
2022/12/11 11:22:14;;;;;;;324.67;122.65;;;;;;;;;;5097241;28;20038;-64
2022/12/11 11:24:44;;;;;;;220.32;77.72;;;;;;;;;;5097244;28;20024;-64
2022/12/11 11:27:19;;;;;;;56.72;20.95;;;;;;;;;;5097220;28;20032;-64
2022/12/11 11:29:44;;;;;;;74.40;24.77;;;;;;;;;;5097036;28;20026;-64
2022/12/11 11:32:18;;;;;;;559.42;191.30;;;;;;;;;;5097069;28;20020;-64
2022/12/11 11:34:43;;;;;;;115.28;40.40;;;;;;;;;;5096996;28;20459;-64
2022/12/11 11:37:29;;;;;;;125.25;46.38;;;;;;;;;;5096824;28;20052;-64
2022/12/11 11:39:56;;;;;;;276.48;81.78;;;;;;;;;;5096833;28;20111;-64
2022/12/11 11:42:29;;;;;;;79.80;27.13;;;;;;;;;;5096780;28;20454;-64
2022/12/11 11:44:56;;;;;;;63.90;21.15;;;;;;;;;;5096995;28;20067;-63
2022/12/11 11:47:24;;;;;;;574.92;200.73;;;;;;;;;;5096748;28;20500;-64
2022/12/11 11:49:56;;;;;;;49.88;19.90;;;;;;;;;;5096611;28;20013;-64
2022/12/11 11:52:28;;;;;;;90.05;36.58;;;;;;;;;;5096617;28;20070;-63
2022/12/11 11:55:08;;;;;;;216.52;80.93;;;;;;;;;;5096438;28;20040;-64
2022/12/11 11:57:43;;;;;;;69.32;31.45;;;;;;;;;;5096681;28;20107;-64
2022/12/11 12:00:14;;;;;;;21.48;12.68;;;;;;;;;;5096123;28;20363;-63
2022/12/11 12:02:40;;;;;;;10.50;7.78;;;;;;;;;;5096420;28;20459;-63
2022/12/11 12:05:05;;;;;;;11.38;8.45;;;;;;;;;;5096449;28;20020;-64
2022/12/11 12:07:43;;;;;;;9.90;8.45;;;;;;;;;;5058210;28;20489;-64
2022/12/11 12:10:13;;;;;;;11.60;9.05;;;;;;;;;;5093799;28;20032;-64
2022/12/11 12:12:55;;;;;;;74.05;41.35;;;;;;;;;;5096382;28;20024;-64
2022/12/11 12:15:24;;;;;;;15.30;10.90;;;;;;;;;;5096248;28;20031;-63
2022/12/11 12:17:49;;;;;;;17.88;12.43;;;;;;;;;;5096214;28;20485;-64
2022/12/11 12:20:23;;;;;;;11.05;9.13;;;;;;;;;;5096273;28;20028;-63
2022/12/11 12:22:58;;;;;;;11.40;9.13;;;;;;;;;;5096095;28;20032;-63
2022/12/11 12:25:23;;;;;;;10.05;8.30;;;;;;;;;;5096067;28;20024;-64
2022/12/11 12:28:00;;;;;;;10.30;8.10;;;;;;;;;;5096089;28;20095;-64
2022/12/11 12:30:29;;;;;;;11.27;8.52;;;;;;;;;;5096076;28;20078;-63
2022/12/11 12:33:13;;;;;;;12.35;10.30;;;;;;;;;;5096124;28;20181;-64
2022/12/11 12:35:44;;;;;;;10.35;8.48;;;;;;;;;;5077909;28;20034;-64
2022/12/11 12:38:13;;;;;;;11.88;8.77;;;;;;;;;;5096090;28;20436;-63
2022/12/11 12:40:39;;;;;;;11.70;8.50;;;;;;;;;;5095832;28;20039;-63
2022/12/11 12:43:13;;;;;;;11.18;8.45;;;;;;;;;;5095611;28;20397;-64
2022/12/11 12:45:51;;;;;;;10.25;8.13;;;;;;;;;;5095640;28;20060;-63
2022/12/11 12:48:16;;;;;;;11.35;8.45;;;;;;;;;;5095617;28;20099;-64
2022/12/11 12:50:43;;;;;;;9.65;7.18;;;;;;;;;;5095530;28;20040;-63
2022/12/11 12:53:13;;;;;;;10.00;7.63;;;;;;;;;;5095513;28;20474;-63
2022/12/11 12:55:38;;;;;;;10.57;8.30;;;;;;;;;;5095485;28;20028;-63
2022/12/11 12:58:04;;;;;;;9.18;7.57;;;;;;;;;;5095639;28;20039;-63
2022/12/11 13:00:40;;;;;;;9.00;6.95;;;;;;;;;;5095398;28;20038;-63
2022/12/11 13:03:16;;;;;;;10.73;7.60;;;;;;;;;;5095196;28;20580;-63
2022/12/11 13:06:06;;;;;;;11.73;8.93;;;;;;;;;;5095258;28;20386;-64
2022/12/11 13:08:40;;;;;;;11.32;8.43;;;;;;;;;;5082367;28;20044;-63
2022/12/11 13:11:07;;;;;;;11.02;8.55;;;;;;;;;;5094051;28;20028;-64
2022/12/11 13:13:35;;;;;;;10.65;8.10;;;;;;;;;;5095058;28;20035;-63
2022/12/11 13:16:05;;;;;;;11.57;9.02;;;;;;;;;;5094999;28;20073;-63
2022/12/11 13:18:37;;;;;;;10.25;8.80;;;;;;;;;;5095077;28;20020;-64
2022/12/11 13:21:23;;;;;;;6.70;5.78;;;;;;;;;;5095023;28;20106;-64
2022/12/11 13:23:49;;;;;;;9.00;7.90;;;;;;;;;;5094741;28;20032;-63
2022/12/11 13:26:25;;;;;;;11.75;7.95;;;;;;;;;;5094821;28;20050;-63
2022/12/11 13:28:51;;;;;;;10.45;8.48;;;;;;;;;;5094721;28;20066;-63
2022/12/11 13:31:16;;;;;;;8.85;7.78;;;;;;;;;;5094782;28;20020;-64
2022/12/11 13:33:53;;;;;;;10.63;8.70;;;;;;;;;;5076523;28;20077;-63
2022/12/11 13:36:18;;;;;;;11.90;8.18;;;;;;;;;;5094735;28;20107;-63
2022/12/11 13:38:55;;;;;;;8.55;6.93;;;;;;;;;;5094817;28;20114;-64
2022/12/11 13:41:21;;;;;;;12.93;9.10;;;;;;;;;;5094721;28;20047;-63
2022/12/11 13:43:48;;;;;;;12.05;9.20;;;;;;;;;;5094736;28;20110;-63
2022/12/11 13:46:14;;;;;;;13.85;10.05;;;;;;;;;;5094418;28;20489;-63
2022/12/11 13:48:46;;;;;;;13.02;9.98;;;;;;;;;;5094499;28;20023;-63
2022/12/11 13:51:14;;;;;;;14.10;10.25;;;;;;;;;;5094591;28;20130;-63
2022/12/11 13:53:40;;;;;;;11.88;8.60;;;;;;;;;;5094382;28;20016;-63
2022/12/11 13:56:06;;;;;;;10.80;8.30;;;;;;;;;;5094306;28;20089;-64
2022/12/11 13:58:33;;;;;;;13.90;10.55;;;;;;;;;;5094264;28;20039;-63
2022/12/11 14:01:03;;;;;;;14.35;10.38;;;;;;;;;;5094312;28;20122;-63
2022/12/11 14:03:29;;;;;;;13.80;9.93;;;;;;;;;;5094148;28;20597;-63
2022/12/11 14:05:54;;;;;;;11.23;9.27;;;;;;;;;;5094130;28;20050;-63
2022/12/11 14:08:21;;;;;;;12.05;9.65;;;;;;;;;;5094362;28;20063;-63
2022/12/11 14:10:51;;;;;;;11.57;8.30;;;;;;;;;;5094092;28;20019;-63
2022/12/11 14:13:23;;;;;;;11.02;8.60;;;;;;;;;;5094001;28;20038;-63
2022/12/11 14:15:49;;;;;;;11.38;8.43;;;;;;;;;;5093887;28;20027;-63
2022/12/11 14:18:20;;;;;;;14.63;10.18;;;;;;;;;;5093849;28;20016;-63
2022/12/11 14:20:45;;;;;;;;;;;;;;;;;;5094142;28;20070;-64
2022/12/11 14:23:21;;;;;;;10.10;8.60;;;;;;;;;;5092657;28;19951;-63
2022/12/11 14:25:53;;;;;;;11.73;9.15;;;;;;;;;;5092050;28;20165;-63
2022/12/11 14:28:19;;;;;;;10.63;9.00;;;;;;;;;;5083632;28;20028;-63
2022/12/11 14:30:48;;;;;;;13.32;9.52;;;;;;;;;;5082393;28;20529;-64
2022/12/11 14:33:13;;;;;;;15.73;11.90;;;;;;;;;;5070610;28;20402;-63
2022/12/11 14:35:40;;;;;;;12.13;9.77;;;;;;;;;;5088926;28;20031;-63
2022/12/11 14:38:24;;;;;;;13.07;10.05;;;;;;;;;;5088577;28;20087;-63
2022/12/11 14:40:52;;;;;;;13.05;10.40;;;;;;;;;;5089148;28;20067;-63
2022/12/11 14:43:27;;;;;;;15.00;11.63;;;;;;;;;;5088881;28;20020;-63
2022/12/11 14:45:56;;;;;;;15.70;10.40;;;;;;;;;;5089202;28;20032;-64
2022/12/11 14:48:24;;;;;;;13.82;10.45;;;;;;;;;;5070700;28;20466;-63